Seafalcon — 9HA2814 — position and weather

sailwx.info

Track history (hours):
 
Tides and Currents Weather Stations Pressure Air Temp Water Temp Dewpoint Dewpoint Depression Visibility Wind Speed Wind Dir Waves Ship Positions

Seafalcon

Last reported at 2014-Jul-22 20:33 UTC. Time now 2014-Jul-22 21:31 UTC.
Position N 43°21' E 005°00'.

Length 250 m; draft 12.2 m.

Type: Ship (hazmat cat A). MMSI: 256078000.

Date/timePositionNaut miles runAvg speedWind from/ knotsBaromVisibWave heightAir tempDewpointWater temp
2014-Jul-22 20:33N 43°21' E 005°00'0 0.0
2014-Jul-22 19:33N 43°21' E 005°00'0 0.0
2014-Jul-22 18:33N 43°21' E 005°00'0 0.0
2014-Jul-22 17:33N 43°21' E 005°00'0 0.0
2014-Jul-22 16:34N 43°21' E 005°00'0 0.0
2014-Jul-22 15:34N 43°21' E 005°00'0 0.0
2014-Jul-22 14:34N 43°21' E 005°00'1 0.5
2014-Jul-22 13:34N 43°20' E 004°60'5 4.9
2014-Jul-22 12:34N 43°15' E 005°01'1010.0
2014-Jul-22 11:33N 43°06' E 005°07'1110.2
2014-Jul-22 10:29N 42°56' E 005°13'9 9.7
2014-Jul-22 09:33N 42°48' E 005°19'9 9.1
2014-Jul-22 08:31N 42°40' E 005°25'8 8.1
2014-Jul-22 07:34N 42°33' E 005°30'382 9.3
2014-Jul-20 14:24N 37°57' E 011°16'3511.7
2014-Jul-20 11:24N 37°40' E 011°55'1411.5
2014-Jul-20 10:10N 37°33' E 012°10'5711.4
2014-Jul-20 05:10N 37°05' E 013°13'711.6
2014-Jul-20 04:33N 37°01' E 013°20'1211.8
2014-Jul-20 03:33N 36°56' E 013°33'1211.9
2014-Jul-20 02:33N 36°50' E 013°46'1212.0
2014-Jul-20 01:33N 36°44' E 013°59'1211.9
2014-Jul-20 00:33N 36°38' E 014°12'1211.7
2014-Jul-19 23:33N 36°32' E 014°25'1111.2
2014-Jul-19 22:33N 36°27' E 014°37'1111.1
2014-Jul-19 21:33N 36°26' E 014°51'1111.3
2014-Jul-19 20:33N 36°26' E 015°05'39511.3
2014-Jul-18 09:30N 36°27' E 023°16'1612.1
2014-Jul-18 08:10N 36°41' E 023°26'2112.0
2014-Jul-18 06:26N 36°59' E 023°40'2511.9
2014-Jul-18 04:20N 37°20' E 023°57'1012.0
2014-Jul-18 03:30N 37°28' E 024°04'2511.7
2014-Jul-18 01:19N 37°48' E 024°23'911.5
2014-Jul-18 00:30N 37°54' E 024°33'6311.9
2014-Jul-17 19:11N 38°51' E 025°09'812.0
2014-Jul-17 18:30N 38°58' E 025°14'  
2014-Jul-14 20:08N 43°15' E 034°11'710.8
2014-Jul-14 19:30N 43°18' E 034°19'1010.8
2014-Jul-14 18:33N 43°23' E 034°31'1110.9
2014-Jul-14 17:33N 43°27' E 034°45'1110.9
2014-Jul-14 16:33N 43°33' E 034°58'1110.9
2014-Jul-14 15:33N 43°37' E 035°12'1110.7
2014-Jul-14 14:33N 43°42' E 035°25'1211.0
2014-Jul-14 13:27N 43°48' E 035°40'1111.0
2014-Jul-14 12:28N 43°52' E 035°53'1010.7
2014-Jul-14 11:33N 43°57' E 036°05'1110.6
2014-Jul-14 10:33N 44°02' E 036°18'61 1.6
2014-Jul-12 21:17N 44°31' E 037°33'1 0.8
2014-Jul-12 20:33N 44°32' E 037°33'  
Track history (hours):
 
Tides and Currents Weather Stations Pressure Air Temp Water Temp Dewpoint Dewpoint Depression Visibility Wind Speed Wind Dir Waves Ship Positions

Seafalcon

Last reported at 2014-Jul-22 20:33 UTC. Time now 2014-Jul-22 21:31 UTC.
Position N 43°21' E 005°00'.

Length 250 m; draft 12.2 m.

Type: Ship (hazmat cat A). MMSI: 256078000.

Date/timePositionNaut miles runAvg speedWind from/ knotsBaromVisibWave heightAir tempDewpointWater temp
2014-Jul-22 20:33N 43°21' E 005°00'0 0.0
2014-Jul-22 19:33N 43°21' E 005°00'0 0.0
2014-Jul-22 18:33N 43°21' E 005°00'0 0.0
2014-Jul-22 17:33N 43°21' E 005°00'0 0.0
2014-Jul-22 16:34N 43°21' E 005°00'0 0.0
2014-Jul-22 15:34N 43°21' E 005°00'0 0.0
2014-Jul-22 14:34N 43°21' E 005°00'1 0.5
2014-Jul-22 13:34N 43°20' E 004°60'5 4.9
2014-Jul-22 12:34N 43°15' E 005°01'1010.0
2014-Jul-22 11:33N 43°06' E 005°07'1110.2
2014-Jul-22 10:29N 42°56' E 005°13'9 9.7
2014-Jul-22 09:33N 42°48' E 005°19'9 9.1
2014-Jul-22 08:31N 42°40' E 005°25'8 8.1
2014-Jul-22 07:34N 42°33' E 005°30'382 9.3
2014-Jul-20 14:24N 37°57' E 011°16'3511.7
2014-Jul-20 11:24N 37°40' E 011°55'1411.5
2014-Jul-20 10:10N 37°33' E 012°10'5711.4
2014-Jul-20 05:10N 37°05' E 013°13'711.6
2014-Jul-20 04:33N 37°01' E 013°20'1211.8
2014-Jul-20 03:33N 36°56' E 013°33'1211.9
2014-Jul-20 02:33N 36°50' E 013°46'1212.0
2014-Jul-20 01:33N 36°44' E 013°59'1211.9
2014-Jul-20 00:33N 36°38' E 014°12'1211.7
2014-Jul-19 23:33N 36°32' E 014°25'1111.2
2014-Jul-19 22:33N 36°27' E 014°37'1111.1
2014-Jul-19 21:33N 36°26' E 014°51'1111.3
2014-Jul-19 20:33N 36°26' E 015°05'39511.3
2014-Jul-18 09:30N 36°27' E 023°16'1612.1
2014-Jul-18 08:10N 36°41' E 023°26'2112.0
2014-Jul-18 06:26N 36°59' E 023°40'2511.9
2014-Jul-18 04:20N 37°20' E 023°57'1012.0
2014-Jul-18 03:30N 37°28' E 024°04'2511.7
2014-Jul-18 01:19N 37°48' E 024°23'911.5
2014-Jul-18 00:30N 37°54' E 024°33'6311.9
2014-Jul-17 19:11N 38°51' E 025°09'812.0
2014-Jul-17 18:30N 38°58' E 025°14'  
2014-Jul-14 20:08N 43°15' E 034°11'710.8
2014-Jul-14 19:30N 43°18' E 034°19'1010.8
2014-Jul-14 18:33N 43°23' E 034°31'1110.9
2014-Jul-14 17:33N 43°27' E 034°45'1110.9
2014-Jul-14 16:33N 43°33' E 034°58'1110.9
2014-Jul-14 15:33N 43°37' E 035°12'1110.7
2014-Jul-14 14:33N 43°42' E 035°25'1211.0
2014-Jul-14 13:27N 43°48' E 035°40'1111.0
2014-Jul-14 12:28N 43°52' E 035°53'1010.7
2014-Jul-14 11:33N 43°57' E 036°05'1110.6
2014-Jul-14 10:33N 44°02' E 036°18'61 1.6
2014-Jul-12 21:17N 44°31' E 037°33'1 0.8
2014-Jul-12 20:33N 44°32' E 037°33'  

Dump ship's entire track history